createdAt,value
2022-08-20T00:03:36.312Z,3.65
2022-08-20T00:06:09.921Z,6.10
2022-08-20T00:08:37.687Z,5.53
2022-08-20T00:11:07.668Z,4.07
2022-08-20T00:13:40.792Z,6.97
2022-08-20T00:16:08.664Z,4.93
2022-08-20T00:18:37.129Z,4.20
2022-08-20T00:21:08.504Z,6.72
2022-08-20T00:23:41.528Z,5.95
2022-08-20T00:26:09.756Z,6.35
2022-08-20T00:28:37.623Z,6.95
2022-08-20T00:31:09.443Z,5.40
2022-08-20T00:33:37.683Z,5.40
2022-08-20T00:36:07.115Z,7.35
2022-08-20T00:38:35.946Z,8.68
2022-08-20T00:41:03.218Z,5.78
2022-08-20T00:43:40.049Z,4.70
2022-08-20T00:46:11.990Z,5.88
2022-08-20T00:48:42.538Z,7.32
2022-08-20T00:51:27.628Z,5.72
2022-08-20T00:54:02.127Z,7.68
2022-08-20T00:58:57.671Z,7.13
2022-08-20T01:01:24.867Z,8.52
2022-08-20T01:03:56.658Z,6.07
2022-08-20T01:06:25.268Z,5.57
2022-08-20T01:08:52.844Z,5.05
2022-08-20T01:11:30.924Z,9.07
2022-08-20T01:14:30.545Z,5.97
2022-08-20T01:17:01.951Z,5.85
2022-08-20T01:19:51.536Z,5.28
2022-08-20T01:22:46.908Z,6.40
2022-08-20T01:25:25.322Z,7.13
2022-08-20T01:27:55.146Z,5.07
2022-08-20T01:30:23.768Z,6.55
2022-08-20T01:32:51.357Z,9.35
2022-08-20T01:35:21.832Z,6.57
2022-08-20T01:37:49.157Z,8.15
2022-08-20T01:40:23.843Z,6.82
2022-08-20T01:42:58.901Z,10.43
2022-08-20T01:45:30.346Z,9.07
2022-08-20T01:47:59.263Z,5.32
2022-08-20T01:50:28.939Z,9.43
2022-08-20T01:53:12.252Z,7.68
2022-08-20T01:55:39.679Z,12.27
2022-08-20T01:58:06.881Z,7.70
2022-08-20T02:00:35.840Z,7.43
2022-08-20T02:03:04.298Z,9.30
2022-08-20T02:05:33.355Z,6.35
2022-08-20T02:08:00.721Z,7.50
2022-08-20T02:10:31.751Z,10.95
2022-08-20T02:13:00.929Z,9.93
2022-08-20T02:15:34.670Z,5.47
2022-08-20T02:18:10.335Z,7.97
2022-08-20T02:20:39.132Z,8.48
2022-08-20T02:23:07.473Z,8.63
2022-08-20T02:25:37.969Z,10.40
2022-08-20T02:28:09.279Z,11.55
2022-08-20T02:30:43.817Z,6.70
2022-08-20T02:33:13.991Z,8.65
2022-08-20T02:35:43.028Z,7.13
2022-08-20T02:38:10.657Z,11.63
2022-08-20T02:40:38.075Z,6.97
2022-08-20T02:43:05.387Z,9.88
2022-08-20T02:45:43.618Z,5.25
2022-08-20T02:48:23.490Z,9.25
2022-08-20T02:50:54.213Z,11.73
2022-08-20T02:53:22.811Z,9.65
2022-08-20T02:55:50.498Z,11.93
2022-08-20T02:58:19.258Z,12.52
2022-08-20T03:00:47.169Z,11.65
2022-08-20T03:03:15.572Z,10.95
2022-08-20T03:05:44.624Z,9.80
2022-08-20T03:08:13.486Z,12.00
2022-08-20T03:10:44.127Z,12.70
2022-08-20T03:13:12.979Z,16.45
2022-08-20T03:15:43.672Z,12.70
2022-08-20T03:18:11.241Z,9.10
2022-08-20T03:20:38.927Z,12.18
2022-08-20T03:23:07.326Z,11.23
2022-08-20T03:25:34.474Z,9.18
2022-08-20T03:28:02.049Z,10.85
2022-08-20T03:30:31.214Z,15.48
2022-08-20T03:32:58.851Z,11.27
2022-08-20T03:35:27.979Z,23.55
2022-08-20T03:37:55.754Z,13.38
2022-08-20T03:40:27.616Z,14.80
2022-08-20T03:42:54.878Z,11.73
2022-08-20T03:45:23.591Z,17.95
2022-08-20T03:47:54.134Z,15.48
2022-08-20T03:50:24.815Z,19.50
2022-08-20T03:52:53.653Z,19.63
2022-08-20T03:55:22.452Z,15.95
2022-08-20T03:57:52.994Z,16.30
2022-08-20T04:00:31.362Z,16.95
2022-08-20T04:02:58.413Z,14.13
2022-08-20T04:05:28.323Z,12.25
2022-08-20T04:08:02.775Z,18.45
2022-08-20T04:10:30.633Z,21.33
2022-08-20T04:12:57.785Z,18.42
2022-08-20T04:15:25.089Z,17.88
2022-08-20T04:17:53.623Z,20.17
2022-08-20T04:20:23.881Z,19.05
2022-08-20T04:22:59.123Z,19.85
2022-08-20T04:25:29.855Z,19.02
2022-08-20T04:27:59.129Z,13.85
2022-08-20T04:30:26.788Z,21.20
2022-08-20T04:32:54.428Z,22.63
2022-08-20T04:35:24.825Z,13.68
2022-08-20T04:38:03.681Z,14.88
2022-08-20T04:40:49.420Z,14.98
2022-08-20T04:43:16.560Z,14.00
2022-08-20T04:45:44.995Z,14.07
2022-08-20T04:48:15.146Z,16.23
2022-08-20T04:50:45.155Z,13.35
2022-08-20T04:53:14.189Z,15.00
2022-08-20T04:55:42.930Z,18.73
2022-08-20T04:58:27.439Z,14.75
2022-08-20T05:01:01.014Z,17.70
2022-08-20T05:03:28.992Z,13.27
2022-08-20T05:05:57.026Z,17.27
2022-08-20T05:08:25.898Z,15.35
2022-08-20T05:10:56.093Z,15.10
2022-08-20T05:13:42.863Z,23.17
2022-08-20T05:16:10.156Z,13.18
2022-08-20T05:18:37.146Z,19.00
2022-08-20T05:21:07.956Z,18.23
2022-08-20T05:23:37.203Z,13.95
2022-08-20T05:26:09.473Z,13.23
2022-08-20T05:28:57.172Z,24.80
2022-08-20T05:31:31.667Z,17.25
2022-08-20T05:34:09.775Z,14.95
2022-08-20T05:36:43.081Z,17.45
2022-08-20T05:39:11.463Z,19.90
2022-08-20T05:41:39.625Z,23.25
2022-08-20T05:44:13.408Z,14.32
2022-08-20T05:46:42.790Z,19.63
2022-08-20T05:49:16.415Z,14.50
2022-08-20T05:51:44.122Z,15.70
2022-08-20T05:54:11.966Z,19.17
2022-08-20T05:56:39.563Z,20.45
2022-08-20T05:59:08.987Z,18.73
2022-08-20T06:01:38.986Z,19.35
2022-08-20T06:04:27.947Z,21.77
2022-08-20T06:06:58.469Z,20.13
2022-08-20T06:09:30.560Z,21.00
2022-08-20T06:12:01.853Z,17.65
2022-08-20T06:14:29.428Z,16.55
2022-08-20T06:17:03.440Z,19.65
2022-08-20T06:19:33.201Z,21.27
2022-08-20T06:22:00.976Z,19.02
2022-08-20T06:24:28.169Z,23.48
2022-08-20T06:27:00.421Z,20.15
2022-08-20T06:29:28.754Z,19.50
2022-08-20T06:31:56.126Z,16.92
2022-08-20T06:34:28.447Z,17.95
2022-08-20T06:36:59.490Z,20.33
2022-08-20T06:39:28.668Z,18.58
2022-08-20T06:41:58.646Z,18.02
2022-08-20T06:44:26.124Z,15.10
2022-08-20T06:46:54.437Z,21.45
2022-08-20T06:49:21.774Z,18.17
2022-08-20T06:51:51.853Z,13.40
2022-08-20T06:54:19.432Z,21.77
2022-08-20T06:56:46.794Z,19.95
2022-08-20T06:59:14.100Z,23.65
2022-08-20T07:01:41.262Z,20.70
2022-08-20T07:04:08.478Z,19.48
2022-08-20T07:06:35.688Z,21.05
2022-08-20T07:09:03.443Z,21.75
2022-08-20T07:11:30.310Z,25.70
2022-08-20T07:13:58.687Z,20.02
2022-08-20T07:16:26.553Z,30.40
2022-08-20T07:18:53.570Z,24.70
2022-08-20T07:21:20.522Z,43.92
2022-08-20T07:23:48.975Z,34.45
2022-08-20T07:26:16.684Z,29.77
2022-08-20T07:28:43.702Z,36.55
2022-08-20T07:31:31.445Z,35.00
2022-08-20T07:33:58.535Z,33.60
2022-08-20T07:36:28.011Z,29.08
2022-08-20T07:38:56.930Z,38.08
2022-08-20T07:41:24.603Z,39.83
2022-08-20T07:43:51.812Z,35.72
2022-08-20T07:46:21.659Z,33.88
2022-08-20T07:48:50.604Z,41.33
2022-08-20T07:51:22.193Z,44.83
2022-08-20T07:53:51.751Z,37.03
2022-08-20T07:56:22.505Z,31.17
2022-08-20T07:58:55.279Z,33.95
2022-08-20T08:01:26.084Z,31.92
2022-08-20T08:03:53.765Z,30.08
2022-08-20T08:06:29.990Z,37.85
2022-08-20T08:09:10.965Z,30.73
2022-08-20T08:11:50.183Z,31.75
2022-08-20T08:14:23.389Z,38.63
2022-08-20T08:16:53.284Z,34.22
2022-08-20T08:19:21.170Z,34.70
2022-08-20T08:21:48.803Z,37.45
2022-08-20T08:24:21.108Z,31.05
2022-08-20T08:26:50.162Z,30.23
2022-08-20T08:29:17.401Z,30.75
2022-08-20T08:31:44.563Z,24.58
2022-08-20T08:34:11.913Z,30.92
2022-08-20T08:36:39.533Z,35.33
2022-08-20T08:39:07.042Z,27.95
2022-08-20T08:41:52.860Z,30.15
2022-08-20T08:44:27.156Z,41.83
2022-08-20T08:46:59.316Z,25.17
2022-08-20T08:49:37.269Z,23.63
2022-08-20T08:52:22.435Z,22.75
2022-08-20T08:54:53.788Z,23.50
2022-08-20T08:57:20.932Z,22.48
2022-08-20T09:00:04.137Z,30.42
2022-08-20T09:02:33.131Z,28.85
2022-08-20T09:05:02.187Z,24.63
2022-08-20T09:07:32.663Z,30.40
2022-08-20T09:10:01.488Z,32.78
2022-08-20T09:12:28.487Z,28.75
2022-08-20T09:14:55.501Z,25.05
2022-08-20T09:17:23.904Z,28.20
2022-08-20T09:19:52.377Z,24.10
2022-08-20T09:22:22.378Z,23.45
2022-08-20T09:24:50.800Z,26.85
2022-08-20T09:27:18.759Z,25.55
2022-08-20T09:29:46.248Z,19.08
2022-08-20T09:32:22.351Z,25.02
2022-08-20T09:34:56.198Z,26.08
2022-08-20T09:37:24.878Z,20.30
2022-08-20T09:39:52.199Z,28.10
2022-08-20T09:42:28.769Z,14.45
2022-08-20T09:44:56.612Z,22.00
2022-08-20T09:47:23.783Z,23.23
2022-08-20T09:49:51.398Z,21.88
2022-08-20T09:52:31.264Z,20.10
2022-08-20T09:55:05.041Z,16.65
2022-08-20T09:57:32.679Z,19.00
2022-08-20T10:00:02.186Z,20.10
2022-08-20T10:02:39.663Z,17.52
2022-08-20T10:05:07.658Z,21.38
2022-08-20T10:07:39.788Z,16.95
2022-08-20T10:10:09.459Z,18.38
2022-08-20T10:12:36.895Z,14.35
2022-08-20T10:15:05.127Z,13.00
2022-08-20T10:17:32.397Z,13.63
2022-08-20T10:19:59.320Z,18.45
2022-08-20T10:22:27.433Z,13.82
2022-08-20T10:24:54.681Z,15.50
2022-08-20T10:27:21.658Z,14.85
2022-08-20T10:29:48.516Z,12.93
2022-08-20T10:32:17.181Z,14.30
2022-08-20T10:34:45.716Z,16.10
2022-08-20T10:37:17.770Z,11.45
2022-08-20T10:42:12.340Z,14.68
2022-08-20T10:44:40.019Z,8.57
2022-08-20T10:47:23.418Z,10.15
2022-08-20T10:49:53.529Z,10.68
2022-08-20T10:52:21.231Z,12.77
2022-08-20T10:54:48.222Z,9.52
2022-08-20T10:57:22.411Z,11.50
2022-08-20T10:59:51.223Z,12.05
2022-08-20T11:02:19.594Z,9.27
2022-08-20T11:04:47.138Z,10.90
2022-08-20T11:07:56.203Z,11.85
2022-08-20T11:10:28.040Z,10.70
2022-08-20T11:12:55.352Z,11.13
2022-08-20T11:15:22.448Z,12.82
2022-08-20T11:17:49.709Z,9.45
2022-08-20T11:20:19.027Z,7.53
2022-08-20T11:22:46.608Z,6.78
2022-08-20T11:25:13.764Z,9.90
2022-08-20T11:27:44.481Z,9.57
2022-08-20T11:30:15.728Z,12.00
2022-08-20T11:32:43.391Z,14.35
2022-08-20T11:35:38.891Z,8.30
2022-08-20T11:37:59.282Z,8.70
2022-08-20T11:40:28.422Z,12.50
2022-08-20T11:45:50.350Z,10.52
2022-08-20T11:48:18.393Z,8.70
2022-08-20T11:50:46.389Z,8.30
2022-08-20T11:53:13.378Z,10.35
2022-08-20T11:55:42.307Z,11.60
2022-08-20T11:58:10.055Z,8.32
2022-08-20T12:00:37.322Z,8.73
2022-08-20T12:03:09.425Z,9.32
2022-08-20T12:05:39.005Z,8.80
2022-08-20T12:08:06.990Z,7.82
2022-08-20T12:10:34.232Z,8.30
2022-08-20T12:13:02.654Z,8.55
2022-08-20T12:15:32.580Z,9.32
2022-08-20T12:17:59.728Z,11.43
2022-08-20T12:20:27.323Z,11.23
2022-08-20T12:22:54.442Z,7.85
2022-08-20T12:25:21.750Z,7.63
2022-08-20T12:27:48.807Z,9.30
2022-08-20T12:30:20.096Z,6.35
2022-08-20T12:32:47.977Z,7.72
2022-08-20T12:35:16.951Z,8.05
2022-08-20T12:37:45.854Z,5.38
2022-08-20T12:40:24.508Z,8.23
2022-08-20T12:43:00.394Z,9.10
2022-08-20T12:45:27.415Z,7.10
2022-08-20T12:48:01.875Z,9.70
2022-08-20T12:50:31.623Z,7.10
2022-08-20T12:52:59.361Z,9.82
2022-08-20T12:55:26.637Z,9.88
2022-08-20T12:57:57.577Z,8.13
2022-08-20T13:00:27.640Z,4.85
2022-08-20T13:02:56.485Z,14.13
2022-08-20T13:05:24.561Z,4.55
2022-08-20T13:07:52.942Z,8.70
2022-08-20T13:10:24.747Z,5.65
2022-08-20T13:12:52.042Z,8.68
2022-08-20T13:15:19.708Z,6.53
2022-08-20T13:17:51.728Z,7.40
2022-08-20T13:20:19.408Z,9.20
2022-08-20T13:22:46.532Z,6.55
2022-08-20T13:25:14.868Z,7.22
2022-08-20T13:27:43.381Z,5.80
2022-08-20T13:30:14.450Z,5.55
2022-08-20T13:32:42.506Z,3.85
2022-08-20T13:35:11.638Z,7.93
2022-08-20T13:37:39.733Z,9.27
2022-08-20T13:40:08.940Z,5.28
2022-08-20T13:42:38.096Z,5.35
2022-08-20T13:45:06.339Z,7.43
2022-08-20T13:47:36.933Z,8.68
2022-08-20T13:50:20.460Z,8.40
2022-08-20T13:52:48.420Z,4.70
2022-08-20T13:55:20.464Z,7.43
2022-08-20T13:57:48.978Z,10.07
2022-08-20T14:00:31.193Z,8.27
2022-08-20T14:03:01.307Z,9.35
2022-08-20T14:05:29.954Z,8.27
2022-08-20T14:08:05.836Z,8.27
2022-08-20T14:10:33.882Z,11.60
2022-08-20T14:13:01.158Z,9.07
2022-08-20T14:15:28.259Z,7.45
2022-08-20T14:17:58.311Z,8.73
2022-08-20T14:20:32.126Z,6.25
2022-08-20T14:23:01.021Z,10.38
2022-08-20T14:25:28.974Z,10.10
2022-08-20T14:27:56.517Z,10.88
2022-08-20T14:30:30.394Z,6.25
2022-08-20T14:32:57.710Z,9.68
2022-08-20T14:35:24.949Z,7.90
2022-08-20T14:37:53.926Z,6.93
2022-08-20T14:40:23.289Z,5.53
2022-08-20T14:42:51.701Z,9.00
2022-08-20T14:45:20.579Z,7.20
2022-08-20T14:47:54.275Z,7.10
2022-08-20T14:50:31.301Z,10.27
2022-08-20T14:52:59.816Z,7.55
2022-08-20T14:55:30.894Z,5.97
2022-08-20T14:57:57.979Z,5.73
2022-08-20T15:00:28.667Z,7.03
2022-08-20T15:02:56.067Z,6.57
2022-08-20T15:05:24.106Z,6.85
2022-08-20T15:07:53.909Z,8.65
2022-08-20T15:10:25.219Z,6.38
2022-08-20T15:12:52.312Z,10.63
2022-08-20T15:15:19.545Z,6.45
2022-08-20T15:17:49.336Z,7.68
2022-08-20T15:20:19.929Z,8.45
2022-08-20T15:22:48.498Z,4.35
2022-08-20T15:25:18.314Z,5.35
2022-08-20T15:27:46.284Z,5.22
2022-08-20T15:30:17.571Z,4.18
2022-08-20T15:32:45.192Z,7.03
2022-08-20T15:35:13.305Z,4.63
2022-08-20T15:37:46.944Z,7.18
2022-08-20T15:40:18.014Z,5.10
2022-08-20T15:42:46.638Z,4.82
2022-08-20T15:45:21.745Z,7.78
2022-08-20T15:48:15.337Z,4.63
2022-08-20T15:50:47.876Z,7.75
2022-08-20T15:53:54.410Z,4.28
2022-08-20T15:56:42.975Z,6.15
2022-08-20T15:59:40.184Z,5.15
2022-08-20T16:02:26.064Z,7.32
2022-08-20T16:05:00.514Z,6.60
2022-08-20T16:07:54.001Z,4.32
2022-08-20T16:10:37.863Z,5.88
2022-08-20T16:13:18.403Z,5.43
2022-08-20T16:15:49.424Z,3.33
2022-08-20T16:18:24.289Z,5.97
2022-08-20T16:20:54.179Z,5.03
2022-08-20T16:23:30.309Z,3.90
2022-08-20T16:26:13.823Z,3.97
2022-08-20T16:29:11.811Z,6.28
2022-08-20T16:31:54.845Z,3.53
2022-08-20T16:34:33.828Z,4.88
2022-08-20T16:37:21.941Z,2.97
2022-08-20T16:40:27.443Z,6.55
2022-08-20T16:42:58.538Z,2.75
2022-08-20T16:45:29.565Z,6.43
2022-08-20T16:48:02.650Z,4.78
2022-08-20T16:50:32.250Z,7.63
2022-08-20T16:52:59.441Z,5.50
2022-08-20T16:55:26.619Z,4.20
2022-08-20T16:57:54.109Z,5.70
2022-08-20T17:00:35.190Z,4.40
2022-08-20T17:03:08.561Z,6.47
2022-08-20T17:05:38.608Z,7.43
2022-08-20T17:08:09.234Z,4.47
2022-08-20T17:10:55.139Z,5.18
2022-08-20T17:13:34.732Z,4.63
2022-08-20T17:16:23.307Z,3.95
2022-08-20T17:18:53.483Z,7.80
2022-08-20T17:21:30.933Z,2.78
2022-08-20T17:24:01.082Z,8.82
2022-08-20T17:26:47.194Z,6.43
2022-08-20T17:29:23.677Z,6.20
2022-08-20T17:31:57.166Z,5.47
2022-08-20T17:34:44.697Z,3.70
2022-08-20T17:37:23.804Z,4.20
2022-08-20T17:39:54.425Z,3.78
2022-08-20T17:42:26.871Z,3.72
2022-08-20T17:45:16.059Z,4.43
2022-08-20T17:47:44.016Z,4.80
2022-08-20T17:50:19.963Z,6.80
2022-08-20T17:52:57.870Z,7.95
2022-08-20T17:55:26.769Z,3.67
2022-08-20T17:57:58.005Z,3.55
2022-08-20T18:00:28.422Z,2.23
2022-08-20T18:03:01.116Z,4.40
2022-08-20T18:05:31.958Z,6.88
2022-08-20T18:08:08.968Z,4.25
2022-08-20T18:10:57.345Z,4.13
2022-08-20T18:13:37.048Z,5.70
2022-08-20T18:16:19.817Z,11.55
2022-08-20T18:18:56.529Z,10.45
2022-08-20T18:21:44.783Z,3.65
2022-08-20T18:24:37.119Z,4.68
2022-08-20T18:29:42.153Z,4.50
2022-08-20T18:32:30.529Z,7.32
2022-08-20T18:35:23.855Z,4.75
2022-08-20T18:37:51.101Z,7.75
2022-08-20T18:40:33.268Z,7.20
2022-08-20T18:43:12.469Z,4.57
2022-08-20T18:45:39.895Z,6.55
2022-08-20T18:48:07.857Z,3.55
2022-08-20T18:50:40.867Z,2.92
2022-08-20T18:53:19.597Z,9.88
2022-08-20T18:55:59.818Z,8.77
2022-08-20T18:58:38.316Z,3.83
2022-08-20T19:01:12.143Z,3.85
2022-08-20T19:03:46.049Z,5.45
2022-08-20T19:06:15.849Z,5.07
2022-08-20T19:08:51.509Z,4.55
2022-08-20T19:11:28.897Z,5.72
2022-08-20T19:14:30.867Z,2.75
2022-08-20T19:17:03.926Z,4.25
2022-08-20T19:19:33.103Z,6.60
2022-08-20T19:22:01.950Z,7.20
2022-08-20T19:24:35.432Z,4.72
2022-08-20T19:27:06.079Z,6.82
2022-08-20T19:29:40.666Z,7.10
2022-08-20T19:32:16.194Z,3.88
2022-08-20T19:34:51.600Z,5.80
2022-08-20T19:37:35.244Z,5.43
2022-08-20T19:40:20.845Z,3.95
2022-08-20T19:42:49.424Z,6.07
2022-08-20T19:45:36.727Z,4.05
2022-08-20T19:48:07.052Z,9.55
2022-08-20T19:50:54.738Z,6.07
2022-08-20T19:53:34.128Z,4.38
2022-08-20T19:56:09.727Z,4.35
2022-08-20T19:58:37.708Z,5.35
2022-08-20T20:01:11.016Z,5.57
2022-08-20T20:03:38.525Z,2.50
2022-08-20T20:06:17.071Z,7.38
2022-08-20T20:09:13.750Z,4.90
2022-08-20T20:11:52.535Z,6.40
2022-08-20T20:14:24.563Z,6.45
2022-08-20T20:16:52.401Z,7.25
2022-08-20T20:19:28.064Z,9.07
2022-08-20T20:22:08.520Z,8.82
2022-08-20T20:24:57.231Z,9.45
2022-08-20T20:27:27.690Z,13.90
2022-08-20T20:30:13.854Z,10.27
2022-08-20T20:32:49.857Z,9.75
2022-08-20T20:35:35.337Z,12.00
2022-08-20T20:38:08.776Z,10.55
2022-08-20T20:40:47.218Z,13.38
2022-08-20T20:43:38.193Z,9.20
2022-08-20T20:46:19.539Z,6.65
2022-08-20T20:48:57.303Z,11.53
2022-08-20T20:51:29.314Z,6.50
2022-08-20T20:54:01.821Z,7.13
2022-08-20T20:56:38.407Z,5.72
2022-08-20T20:59:07.489Z,7.25
2022-08-20T21:01:48.142Z,7.50
2022-08-20T21:04:22.374Z,6.78
2022-08-20T21:06:51.645Z,5.35
2022-08-20T21:09:19.803Z,8.57
2022-08-20T21:11:47.294Z,8.00
2022-08-20T21:14:15.273Z,6.55
2022-08-20T21:16:43.332Z,6.85
2022-08-20T21:19:11.468Z,7.53
2022-08-20T21:21:39.478Z,5.25
2022-08-20T21:24:07.495Z,7.30
2022-08-20T21:26:34.906Z,7.30
2022-08-20T21:29:02.563Z,8.57
2022-08-20T21:31:34.125Z,6.47
2022-08-20T21:34:01.611Z,7.90
2022-08-20T21:36:28.908Z,6.00
2022-08-20T21:38:56.282Z,5.65
2022-08-20T21:41:29.533Z,7.47
2022-08-20T21:44:03.592Z,5.93
2022-08-20T21:46:31.538Z,6.53
2022-08-20T21:48:59.007Z,6.00
2022-08-20T21:51:28.518Z,7.20
2022-08-20T21:53:55.550Z,6.85
2022-08-20T21:56:22.703Z,5.53
2022-08-20T21:58:51.596Z,9.10
2022-08-20T22:01:22.788Z,6.75
2022-08-20T22:03:51.911Z,6.63
2022-08-20T22:06:20.316Z,8.77
2022-08-20T22:08:47.364Z,5.38
2022-08-20T22:11:14.789Z,4.30
2022-08-20T22:13:42.372Z,6.35
2022-08-20T22:16:11.426Z,8.25
2022-08-20T22:18:39.446Z,6.47
2022-08-20T22:21:10.108Z,7.38
2022-08-20T22:23:40.394Z,6.30
2022-08-20T22:26:08.541Z,6.82
2022-08-20T22:28:36.201Z,7.38
2022-08-20T22:31:04.389Z,10.18
2022-08-20T22:33:33.093Z,6.13
2022-08-20T22:36:00.922Z,3.80
2022-08-20T22:38:28.623Z,10.60
2022-08-20T22:40:55.782Z,5.20
2022-08-20T22:43:23.703Z,4.53
2022-08-20T22:45:55.892Z,8.18
2022-08-20T22:50:52.195Z,5.78
2022-08-20T22:53:21.978Z,5.75
2022-08-20T22:55:49.438Z,7.32
2022-08-20T22:58:17.773Z,7.10
2022-08-20T23:00:46.756Z,4.72
2022-08-20T23:03:18.019Z,8.02
2022-08-20T23:05:50.718Z,4.78
2022-08-20T23:08:17.790Z,7.00
2022-08-20T23:10:44.973Z,7.40
2022-08-20T23:13:12.204Z,6.25
2022-08-20T23:15:41.516Z,6.35
2022-08-20T23:18:15.882Z,6.00
2022-08-20T23:20:45.387Z,5.18
2022-08-20T23:23:12.484Z,5.57
2022-08-20T23:25:40.628Z,4.90
2022-08-20T23:28:07.632Z,5.00
2022-08-20T23:30:35.160Z,6.45
2022-08-20T23:33:03.756Z,6.75
2022-08-20T23:35:33.009Z,8.60
2022-08-20T23:38:00.421Z,4.82
2022-08-20T23:40:28.577Z,3.67
2022-08-20T23:42:57.073Z,5.88
2022-08-20T23:45:24.642Z,8.38
2022-08-20T23:47:52.290Z,10.48
2022-08-20T23:50:24.245Z,6.80
2022-08-20T23:52:52.057Z,4.03
2022-08-20T23:55:19.362Z,5.68
2022-08-20T23:57:46.815Z,6.40
